sensor_id;sensor_type;location;lat;lon;timestamp;P1;durP1;ratioP1;P2;durP2;ratioP2
19329;SDS011;9799;48.214;16.388;2023-02-22T00:02:28;5.23;;;2.90;;
19329;SDS011;9799;48.214;16.388;2023-02-22T00:05:51;2.87;;;2.40;;
19329;SDS011;9799;48.214;16.388;2023-02-22T00:09:19;2.53;;;2.33;;
19329;SDS011;9799;48.214;16.388;2023-02-22T00:12:41;4.47;;;2.47;;
19329;SDS011;9799;48.214;16.388;2023-02-22T00:16:02;3.33;;;2.20;;
19329;SDS011;9799;48.214;16.388;2023-02-22T00:19:24;4.90;;;2.63;;
19329;SDS011;9799;48.214;16.388;2023-02-22T00:22:48;3.17;;;2.53;;
19329;SDS011;9799;48.214;16.388;2023-02-22T00:26:13;4.83;;;2.93;;
19329;SDS011;9799;48.214;16.388;2023-02-22T00:29:37;3.10;;;2.73;;
19329;SDS011;9799;48.214;16.388;2023-02-22T00:33:03;3.00;;;2.40;;
19329;SDS011;9799;48.214;16.388;2023-02-22T00:36:26;4.60;;;2.77;;
19329;SDS011;9799;48.214;16.388;2023-02-22T00:39:48;4.03;;;2.50;;
19329;SDS011;9799;48.214;16.388;2023-02-22T00:43:11;4.93;;;2.83;;
19329;SDS011;9799;48.214;16.388;2023-02-22T00:46:33;3.13;;;2.53;;
19329;SDS011;9799;48.214;16.388;2023-02-22T00:49:54;4.17;;;2.77;;
19329;SDS011;9799;48.214;16.388;2023-02-22T00:53:16;3.47;;;2.90;;
19329;SDS011;9799;48.214;16.388;2023-02-22T00:56:37;2.60;;;2.40;;
19329;SDS011;9799;48.214;16.388;2023-02-22T01:00:00;2.60;;;2.40;;
19329;SDS011;9799;48.214;16.388;2023-02-22T01:03:30;3.73;;;2.63;;
19329;SDS011;9799;48.214;16.388;2023-02-22T01:06:51;2.93;;;2.63;;
19329;SDS011;9799;48.214;16.388;2023-02-22T01:10:15;3.33;;;2.70;;
19329;SDS011;9799;48.214;16.388;2023-02-22T01:13:38;3.43;;;2.33;;
19329;SDS011;9799;48.214;16.388;2023-02-22T01:17:01;2.93;;;2.60;;
19329;SDS011;9799;48.214;16.388;2023-02-22T01:20:23;4.67;;;2.57;;
19329;SDS011;9799;48.214;16.388;2023-02-22T01:23:45;3.10;;;2.57;;
19329;SDS011;9799;48.214;16.388;2023-02-22T01:27:07;2.77;;;2.57;;
19329;SDS011;9799;48.214;16.388;2023-02-22T01:30:30;2.73;;;2.53;;
19329;SDS011;9799;48.214;16.388;2023-02-22T01:33:53;2.50;;;2.23;;
19329;SDS011;9799;48.214;16.388;2023-02-22T01:37:14;4.67;;;3.30;;
19329;SDS011;9799;48.214;16.388;2023-02-22T01:40:36;3.30;;;2.83;;
19329;SDS011;9799;48.214;16.388;2023-02-22T01:47:40;3.10;;;2.67;;
19329;SDS011;9799;48.214;16.388;2023-02-22T01:51:04;2.90;;;2.60;;
19329;SDS011;9799;48.214;16.388;2023-02-22T01:54:31;4.10;;;2.63;;
19329;SDS011;9799;48.214;16.388;2023-02-22T01:57:54;2.97;;;2.50;;
19329;SDS011;9799;48.214;16.388;2023-02-22T02:01:15;4.40;;;3.03;;
19329;SDS011;9799;48.214;16.388;2023-02-22T02:04:39;2.87;;;2.40;;
19329;SDS011;9799;48.214;16.388;2023-02-22T02:08:05;2.57;;;2.37;;
19329;SDS011;9799;48.214;16.388;2023-02-22T02:11:32;3.27;;;2.60;;
19329;SDS011;9799;48.214;16.388;2023-02-22T02:18:37;2.93;;;2.63;;
19329;SDS011;9799;48.214;16.388;2023-02-22T02:22:07;3.00;;;2.50;;
19329;SDS011;9799;48.214;16.388;2023-02-22T02:25:49;3.97;;;2.80;;
19329;SDS011;9799;48.214;16.388;2023-02-22T02:29:39;2.50;;;2.13;;
19329;SDS011;9799;48.214;16.388;2023-02-22T02:33:19;4.03;;;2.33;;
19329;SDS011;9799;48.214;16.388;2023-02-22T02:36:49;2.70;;;2.10;;
19329;SDS011;9799;48.214;16.388;2023-02-22T02:40:19;2.50;;;2.30;;
19329;SDS011;9799;48.214;16.388;2023-02-22T02:43:45;2.50;;;2.10;;
19329;SDS011;9799;48.214;16.388;2023-02-22T02:47:13;3.40;;;2.47;;
19329;SDS011;9799;48.214;16.388;2023-02-22T02:50:41;2.83;;;2.50;;
19329;SDS011;9799;48.214;16.388;2023-02-22T02:54:04;5.83;;;3.03;;
19329;SDS011;9799;48.214;16.388;2023-02-22T02:57:27;3.10;;;2.80;;
19329;SDS011;9799;48.214;16.388;2023-02-22T03:00:48;6.90;;;3.20;;
19329;SDS011;9799;48.214;16.388;2023-02-22T03:04:17;4.57;;;3.40;;
19329;SDS011;9799;48.214;16.388;2023-02-22T03:07:46;7.70;;;3.57;;
19329;SDS011;9799;48.214;16.388;2023-02-22T03:11:15;4.20;;;3.13;;
19329;SDS011;9799;48.214;16.388;2023-02-22T03:14:39;3.30;;;2.77;;
19329;SDS011;9799;48.214;16.388;2023-02-22T03:18:08;3.97;;;3.50;;
19329;SDS011;9799;48.214;16.388;2023-02-22T03:21:39;3.47;;;2.83;;
19329;SDS011;9799;48.214;16.388;2023-02-22T03:25:08;5.77;;;4.17;;
19329;SDS011;9799;48.214;16.388;2023-02-22T03:28:32;3.67;;;3.13;;
19329;SDS011;9799;48.214;16.388;2023-02-22T03:31:57;3.97;;;3.47;;
19329;SDS011;9799;48.214;16.388;2023-02-22T03:35:19;5.50;;;4.00;;
19329;SDS011;9799;48.214;16.388;2023-02-22T03:38:44;3.53;;;3.23;;
19329;SDS011;9799;48.214;16.388;2023-02-22T03:42:08;5.17;;;4.00;;
19329;SDS011;9799;48.214;16.388;2023-02-22T03:45:34;6.03;;;3.23;;
19329;SDS011;9799;48.214;16.388;2023-02-22T03:48:57;4.33;;;3.70;;
19329;SDS011;9799;48.214;16.388;2023-02-22T03:52:22;4.53;;;3.40;;
19329;SDS011;9799;48.214;16.388;2023-02-22T03:55:44;5.67;;;4.10;;
19329;SDS011;9799;48.214;16.388;2023-02-22T03:59:11;6.90;;;3.50;;
19329;SDS011;9799;48.214;16.388;2023-02-22T04:02:33;4.80;;;3.60;;
19329;SDS011;9799;48.214;16.388;2023-02-22T04:05:54;4.27;;;3.33;;
19329;SDS011;9799;48.214;16.388;2023-02-22T04:09:16;4.07;;;3.30;;
19329;SDS011;9799;48.214;16.388;2023-02-22T04:12:38;5.87;;;3.47;;
19329;SDS011;9799;48.214;16.388;2023-02-22T04:16:01;4.07;;;3.47;;
19329;SDS011;9799;48.214;16.388;2023-02-22T04:19:23;3.40;;;3.07;;
19329;SDS011;9799;48.214;16.388;2023-02-22T04:22:44;4.23;;;3.47;;
19329;SDS011;9799;48.214;16.388;2023-02-22T04:26:06;4.50;;;3.50;;
19329;SDS011;9799;48.214;16.388;2023-02-22T04:29:27;4.43;;;3.50;;
19329;SDS011;9799;48.214;16.388;2023-02-22T04:32:50;4.20;;;3.80;;
19329;SDS011;9799;48.214;16.388;2023-02-22T04:36:11;4.87;;;3.57;;
19329;SDS011;9799;48.214;16.388;2023-02-22T04:39:34;4.17;;;3.40;;
19329;SDS011;9799;48.214;16.388;2023-02-22T04:42:55;4.27;;;3.67;;
19329;SDS011;9799;48.214;16.388;2023-02-22T04:46:18;6.43;;;3.57;;
19329;SDS011;9799;48.214;16.388;2023-02-22T04:49:41;4.20;;;3.50;;
19329;SDS011;9799;48.214;16.388;2023-02-22T04:53:04;5.90;;;4.10;;
19329;SDS011;9799;48.214;16.388;2023-02-22T04:56:25;4.03;;;3.63;;
19329;SDS011;9799;48.214;16.388;2023-02-22T04:59:46;4.20;;;3.80;;
19329;SDS011;9799;48.214;16.388;2023-02-22T05:03:09;4.23;;;3.83;;
19329;SDS011;9799;48.214;16.388;2023-02-22T05:06:32;6.50;;;3.93;;
19329;SDS011;9799;48.214;16.388;2023-02-22T05:09:53;7.17;;;4.17;;
19329;SDS011;9799;48.214;16.388;2023-02-22T05:13:15;5.87;;;4.70;;
19329;SDS011;9799;48.214;16.388;2023-02-22T05:16:36;5.60;;;3.93;;
19329;SDS011;9799;48.214;16.388;2023-02-22T05:19:58;6.03;;;4.83;;
19329;SDS011;9799;48.214;16.388;2023-02-22T05:23:20;4.53;;;4.13;;
19329;SDS011;9799;48.214;16.388;2023-02-22T05:26:42;4.27;;;3.70;;
19329;SDS011;9799;48.214;16.388;2023-02-22T05:30:04;6.63;;;3.83;;
19329;SDS011;9799;48.214;16.388;2023-02-22T05:33:42;5.20;;;4.60;;
19329;SDS011;9799;48.214;16.388;2023-02-22T05:37:03;4.80;;;4.30;;
19329;SDS011;9799;48.214;16.388;2023-02-22T05:40:26;6.37;;;4.83;;
19329;SDS011;9799;48.214;16.388;2023-02-22T05:43:47;5.20;;;4.30;;
19329;SDS011;9799;48.214;16.388;2023-02-22T05:47:08;5.30;;;4.07;;
19329;SDS011;9799;48.214;16.388;2023-02-22T05:50:30;6.70;;;4.60;;
19329;SDS011;9799;48.214;16.388;2023-02-22T05:53:51;4.87;;;3.90;;
19329;SDS011;9799;48.214;16.388;2023-02-22T05:57:14;7.17;;;4.40;;
19329;SDS011;9799;48.214;16.388;2023-02-22T06:00:35;5.37;;;4.50;;
19329;SDS011;9799;48.214;16.388;2023-02-22T06:03:57;6.77;;;5.20;;
19329;SDS011;9799;48.214;16.388;2023-02-22T06:07:18;7.53;;;4.70;;
19329;SDS011;9799;48.214;16.388;2023-02-22T06:10:39;7.17;;;4.37;;
19329;SDS011;9799;48.214;16.388;2023-02-22T06:14:02;4.70;;;4.00;;
19329;SDS011;9799;48.214;16.388;2023-02-22T06:17:23;4.43;;;3.90;;
19329;SDS011;9799;48.214;16.388;2023-02-22T06:20:44;13.83;;;4.00;;
19329;SDS011;9799;48.214;16.388;2023-02-22T06:24:05;7.63;;;3.87;;
19329;SDS011;9799;48.214;16.388;2023-02-22T06:27:29;4.47;;;4.07;;
19329;SDS011;9799;48.214;16.388;2023-02-22T06:30:52;5.17;;;3.97;;
19329;SDS011;9799;48.214;16.388;2023-02-22T06:34:13;4.20;;;3.70;;
19329;SDS011;9799;48.214;16.388;2023-02-22T06:37:34;4.47;;;4.03;;
19329;SDS011;9799;48.214;16.388;2023-02-22T06:40:56;6.33;;;3.73;;
19329;SDS011;9799;48.214;16.388;2023-02-22T06:44:18;3.47;;;3.10;;
19329;SDS011;9799;48.214;16.388;2023-02-22T06:47:40;6.93;;;3.50;;
19329;SDS011;9799;48.214;16.388;2023-02-22T06:51:02;8.00;;;4.60;;
19329;SDS011;9799;48.214;16.388;2023-02-22T06:54:23;5.90;;;4.83;;
19329;SDS011;9799;48.214;16.388;2023-02-22T06:57:45;5.23;;;3.53;;
19329;SDS011;9799;48.214;16.388;2023-02-22T07:01:06;6.37;;;4.30;;
19329;SDS011;9799;48.214;16.388;2023-02-22T07:04:29;8.17;;;6.20;;
19329;SDS011;9799;48.214;16.388;2023-02-22T07:07:51;10.63;;;6.40;;
19329;SDS011;9799;48.214;16.388;2023-02-22T07:11:14;7.87;;;5.77;;
19329;SDS011;9799;48.214;16.388;2023-02-22T07:14:36;8.97;;;6.17;;
19329;SDS011;9799;48.214;16.388;2023-02-22T07:17:57;8.33;;;6.40;;
19329;SDS011;9799;48.214;16.388;2023-02-22T07:21:20;11.43;;;7.00;;
19329;SDS011;9799;48.214;16.388;2023-02-22T07:24:42;12.27;;;6.10;;
19329;SDS011;9799;48.214;16.388;2023-02-22T07:28:04;9.03;;;5.97;;
19329;SDS011;9799;48.214;16.388;2023-02-22T07:31:25;14.07;;;5.57;;
19329;SDS011;9799;48.214;16.388;2023-02-22T07:34:46;4.70;;;4.27;;
19329;SDS011;9799;48.214;16.388;2023-02-22T07:38:09;6.50;;;4.60;;
19329;SDS011;9799;48.214;16.388;2023-02-22T07:41:30;5.80;;;4.37;;
19329;SDS011;9799;48.214;16.388;2023-02-22T07:44:51;5.37;;;4.40;;
19329;SDS011;9799;48.214;16.388;2023-02-22T07:48:13;4.87;;;3.43;;
19329;SDS011;9799;48.214;16.388;2023-02-22T07:51:35;6.33;;;4.30;;
19329;SDS011;9799;48.214;16.388;2023-02-22T07:54:58;4.87;;;4.10;;
19329;SDS011;9799;48.214;16.388;2023-02-22T07:58:20;10.03;;;5.17;;
19329;SDS011;9799;48.214;16.388;2023-02-22T08:01:43;6.87;;;4.93;;
19329;SDS011;9799;48.214;16.388;2023-02-22T08:05:05;6.47;;;4.40;;
19329;SDS011;9799;48.214;16.388;2023-02-22T08:08:26;6.47;;;4.17;;
19329;SDS011;9799;48.214;16.388;2023-02-22T08:11:49;8.27;;;4.40;;
19329;SDS011;9799;48.214;16.388;2023-02-22T08:15:14;8.50;;;5.13;;
19329;SDS011;9799;48.214;16.388;2023-02-22T08:18:37;5.70;;;4.53;;
19329;SDS011;9799;48.214;16.388;2023-02-22T08:21:59;8.93;;;5.30;;
19329;SDS011;9799;48.214;16.388;2023-02-22T08:25:21;6.27;;;4.40;;
19329;SDS011;9799;48.214;16.388;2023-02-22T08:28:45;7.07;;;4.10;;
19329;SDS011;9799;48.214;16.388;2023-02-22T08:32:08;6.33;;;4.50;;
19329;SDS011;9799;48.214;16.388;2023-02-22T08:35:29;7.57;;;4.83;;
19329;SDS011;9799;48.214;16.388;2023-02-22T08:38:52;6.00;;;4.20;;
19329;SDS011;9799;48.214;16.388;2023-02-22T08:42:13;6.37;;;4.03;;
19329;SDS011;9799;48.214;16.388;2023-02-22T08:45:36;5.53;;;4.73;;
19329;SDS011;9799;48.214;16.388;2023-02-22T08:48:57;6.83;;;5.63;;
19329;SDS011;9799;48.214;16.388;2023-02-22T08:52:19;9.83;;;5.93;;
19329;SDS011;9799;48.214;16.388;2023-02-22T08:55:41;6.17;;;5.50;;
19329;SDS011;9799;48.214;16.388;2023-02-22T08:59:03;5.87;;;5.07;;
19329;SDS011;9799;48.214;16.388;2023-02-22T09:02:25;8.50;;;5.83;;
19329;SDS011;9799;48.214;16.388;2023-02-22T09:05:46;11.63;;;6.70;;
19329;SDS011;9799;48.214;16.388;2023-02-22T09:09:08;7.60;;;6.33;;
19329;SDS011;9799;48.214;16.388;2023-02-22T09:12:29;8.50;;;6.60;;
19329;SDS011;9799;48.214;16.388;2023-02-22T09:15:51;8.33;;;6.70;;
19329;SDS011;9799;48.214;16.388;2023-02-22T09:19:14;13.10;;;7.63;;
19329;SDS011;9799;48.214;16.388;2023-02-22T09:22:35;9.33;;;6.93;;
19329;SDS011;9799;48.214;16.388;2023-02-22T09:25:56;12.90;;;7.50;;
19329;SDS011;9799;48.214;16.388;2023-02-22T09:29:18;8.07;;;5.97;;
19329;SDS011;9799;48.214;16.388;2023-02-22T09:32:42;8.10;;;7.03;;
19329;SDS011;9799;48.214;16.388;2023-02-22T09:36:05;8.80;;;7.43;;
19329;SDS011;9799;48.214;16.388;2023-02-22T09:39:27;21.90;;;17.37;;
19329;SDS011;9799;48.214;16.388;2023-02-22T09:42:49;9.97;;;7.63;;
19329;SDS011;9799;48.214;16.388;2023-02-22T09:46:24;9.73;;;6.97;;
19329;SDS011;9799;48.214;16.388;2023-02-22T09:49:53;7.17;;;6.47;;
19329;SDS011;9799;48.214;16.388;2023-02-22T09:53:24;19.10;;;14.77;;
19329;SDS011;9799;48.214;16.388;2023-02-22T09:56:54;10.40;;;7.27;;
19329;SDS011;9799;48.214;16.388;2023-02-22T10:00:19;6.53;;;5.83;;
19329;SDS011;9799;48.214;16.388;2023-02-22T10:03:48;13.37;;;5.90;;
19329;SDS011;9799;48.214;16.388;2023-02-22T10:07:16;7.60;;;5.93;;
19329;SDS011;9799;48.214;16.388;2023-02-22T10:10:41;7.93;;;6.17;;
19329;SDS011;9799;48.214;16.388;2023-02-22T10:14:08;8.13;;;5.70;;
19329;SDS011;9799;48.214;16.388;2023-02-22T10:17:46;6.90;;;5.47;;
19329;SDS011;9799;48.214;16.388;2023-02-22T10:21:20;7.07;;;5.67;;
19329;SDS011;9799;48.214;16.388;2023-02-22T10:24:56;6.03;;;5.20;;
19329;SDS011;9799;48.214;16.388;2023-02-22T10:28:22;7.33;;;5.43;;
19329;SDS011;9799;48.214;16.388;2023-02-22T10:31:50;9.80;;;5.27;;
19329;SDS011;9799;48.214;16.388;2023-02-22T10:35:17;6.70;;;5.43;;
19329;SDS011;9799;48.214;16.388;2023-02-22T10:38:42;12.97;;;5.93;;
19329;SDS011;9799;48.214;16.388;2023-02-22T10:42:09;7.13;;;5.93;;
19329;SDS011;9799;48.214;16.388;2023-02-22T10:45:33;8.37;;;5.33;;
19329;SDS011;9799;48.214;16.388;2023-02-22T10:48:55;7.17;;;5.63;;
19329;SDS011;9799;48.214;16.388;2023-02-22T10:52:23;8.93;;;6.23;;
19329;SDS011;9799;48.214;16.388;2023-02-22T10:56:06;6.23;;;5.40;;
19329;SDS011;9799;48.214;16.388;2023-02-22T10:59:32;5.87;;;4.80;;
19329;SDS011;9799;48.214;16.388;2023-02-22T11:02:56;6.93;;;4.80;;
19329;SDS011;9799;48.214;16.388;2023-02-22T11:06:19;5.67;;;4.73;;
19329;SDS011;9799;48.214;16.388;2023-02-22T11:09:45;4.47;;;3.83;;
19329;SDS011;9799;48.214;16.388;2023-02-22T11:13:18;4.70;;;4.20;;
19329;SDS011;9799;48.214;16.388;2023-02-22T11:16:46;8.33;;;4.80;;
19329;SDS011;9799;48.214;16.388;2023-02-22T11:20:18;5.80;;;4.43;;
19329;SDS011;9799;48.214;16.388;2023-02-22T11:23:43;4.03;;;3.37;;
19329;SDS011;9799;48.214;16.388;2023-02-22T11:27:05;3.40;;;2.70;;
19329;SDS011;9799;48.214;16.388;2023-02-22T11:30:27;5.07;;;2.70;;
19329;SDS011;9799;48.214;16.388;2023-02-22T11:33:51;5.00;;;4.03;;
19329;SDS011;9799;48.214;16.388;2023-02-22T11:37:16;15.60;;;11.80;;
19329;SDS011;9799;48.214;16.388;2023-02-22T11:41:03;5.23;;;4.23;;
19329;SDS011;9799;48.214;16.388;2023-02-22T11:44:27;3.60;;;3.20;;
19329;SDS011;9799;48.214;16.388;2023-02-22T11:47:50;4.33;;;3.03;;
19329;SDS011;9799;48.214;16.388;2023-02-22T11:51:15;4.00;;;3.60;;
19329;SDS011;9799;48.214;16.388;2023-02-22T11:58:32;5.60;;;3.50;;
19329;SDS011;9799;48.214;16.388;2023-02-22T12:02:00;6.30;;;3.90;;
19329;SDS011;9799;48.214;16.388;2023-02-22T12:05:40;4.13;;;3.73;;
19329;SDS011;9799;48.214;16.388;2023-02-22T12:09:19;7.30;;;4.23;;
19329;SDS011;9799;48.214;16.388;2023-02-22T12:12:50;5.63;;;3.43;;
19329;SDS011;9799;48.214;16.388;2023-02-22T12:16:22;5.67;;;3.57;;
19329;SDS011;9799;48.214;16.388;2023-02-22T12:19:50;5.80;;;4.37;;
19329;SDS011;9799;48.214;16.388;2023-02-22T12:23:16;6.40;;;4.30;;
19329;SDS011;9799;48.214;16.388;2023-02-22T12:26:42;6.67;;;4.60;;
19329;SDS011;9799;48.214;16.388;2023-02-22T12:30:09;5.03;;;4.23;;
19329;SDS011;9799;48.214;16.388;2023-02-22T12:33:38;8.10;;;4.40;;
19329;SDS011;9799;48.214;16.388;2023-02-22T12:37:09;5.97;;;4.00;;
19329;SDS011;9799;48.214;16.388;2023-02-22T12:40:36;4.87;;;4.07;;
19329;SDS011;9799;48.214;16.388;2023-02-22T12:44:05;5.17;;;4.07;;
19329;SDS011;9799;48.214;16.388;2023-02-22T12:47:31;6.63;;;4.20;;
19329;SDS011;9799;48.214;16.388;2023-02-22T12:50:58;4.57;;;4.03;;
19329;SDS011;9799;48.214;16.388;2023-02-22T12:54:32;4.87;;;3.67;;
19329;SDS011;9799;48.214;16.388;2023-02-22T12:58:05;5.03;;;3.57;;
19329;SDS011;9799;48.214;16.388;2023-02-22T13:01:41;4.40;;;3.30;;
19329;SDS011;9799;48.214;16.388;2023-02-22T13:05:11;7.07;;;4.10;;
19329;SDS011;9799;48.214;16.388;2023-02-22T13:08:35;4.10;;;2.87;;
19329;SDS011;9799;48.214;16.388;2023-02-22T13:12:11;6.77;;;3.33;;
19329;SDS011;9799;48.214;16.388;2023-02-22T13:15:38;6.80;;;5.00;;
19329;SDS011;9799;48.214;16.388;2023-02-22T13:19:06;5.50;;;4.00;;
19329;SDS011;9799;48.214;16.388;2023-02-22T13:22:46;4.13;;;2.93;;
19329;SDS011;9799;48.214;16.388;2023-02-22T13:26:14;6.13;;;3.40;;
19329;SDS011;9799;48.214;16.388;2023-02-22T13:29:43;4.63;;;3.43;;
19329;SDS011;9799;48.214;16.388;2023-02-22T13:33:11;5.13;;;3.10;;
19329;SDS011;9799;48.214;16.388;2023-02-22T13:36:47;4.00;;;2.83;;
19329;SDS011;9799;48.214;16.388;2023-02-22T13:40:27;4.53;;;3.17;;
19329;SDS011;9799;48.214;16.388;2023-02-22T13:44:09;3.23;;;2.67;;
19329;SDS011;9799;48.214;16.388;2023-02-22T13:51:43;5.20;;;3.43;;
19329;SDS011;9799;48.214;16.388;2023-02-22T13:55:08;5.20;;;3.90;;
19329;SDS011;9799;48.214;16.388;2023-02-22T13:58:49;5.13;;;2.80;;
19329;SDS011;9799;48.214;16.388;2023-02-22T14:05:55;5.07;;;2.67;;
19329;SDS011;9799;48.214;16.388;2023-02-22T14:13:04;6.30;;;2.73;;
19329;SDS011;9799;48.214;16.388;2023-02-22T14:16:27;3.43;;;2.60;;
19329;SDS011;9799;48.214;16.388;2023-02-22T14:23:48;5.67;;;3.23;;
19329;SDS011;9799;48.214;16.388;2023-02-22T14:27:10;3.37;;;2.90;;
19329;SDS011;9799;48.214;16.388;2023-02-22T14:30:33;8.03;;;2.33;;
19329;SDS011;9799;48.214;16.388;2023-02-22T14:34:02;4.17;;;2.90;;
19329;SDS011;9799;48.214;16.388;2023-02-22T14:37:29;5.90;;;4.43;;
19329;SDS011;9799;48.214;16.388;2023-02-22T14:40:54;4.03;;;3.63;;
19329;SDS011;9799;48.214;16.388;2023-02-22T14:44:20;3.30;;;3.00;;
19329;SDS011;9799;48.214;16.388;2023-02-22T14:47:47;4.30;;;2.87;;
19329;SDS011;9799;48.214;16.388;2023-02-22T14:51:22;3.67;;;3.27;;
19329;SDS011;9799;48.214;16.388;2023-02-22T14:54:51;3.47;;;3.17;;
19329;SDS011;9799;48.214;16.388;2023-02-22T14:58:19;5.80;;;4.47;;
19329;SDS011;9799;48.214;16.388;2023-02-22T15:01:44;3.77;;;3.37;;
19329;SDS011;9799;48.214;16.388;2023-02-22T15:05:06;3.83;;;3.30;;
19329;SDS011;9799;48.214;16.388;2023-02-22T15:08:34;4.27;;;3.03;;
19329;SDS011;9799;48.214;16.388;2023-02-22T15:12:10;3.80;;;3.27;;
19329;SDS011;9799;48.214;16.388;2023-02-22T15:15:33;3.90;;;3.30;;
19329;SDS011;9799;48.214;16.388;2023-02-22T15:18:56;4.23;;;3.33;;
19329;SDS011;9799;48.214;16.388;2023-02-22T15:22:20;3.40;;;3.10;;
19329;SDS011;9799;48.214;16.388;2023-02-22T15:25:47;4.23;;;3.30;;
19329;SDS011;9799;48.214;16.388;2023-02-22T15:29:12;5.97;;;3.53;;
19329;SDS011;9799;48.214;16.388;2023-02-22T15:32:38;3.83;;;3.43;;
19329;SDS011;9799;48.214;16.388;2023-02-22T15:36:00;3.90;;;3.50;;
19329;SDS011;9799;48.214;16.388;2023-02-22T15:39:22;4.57;;;3.80;;
19329;SDS011;9799;48.214;16.388;2023-02-22T15:42:47;6.13;;;3.93;;
19329;SDS011;9799;48.214;16.388;2023-02-22T15:46:11;3.90;;;3.53;;
19329;SDS011;9799;48.214;16.388;2023-02-22T15:49:32;4.10;;;3.30;;
19329;SDS011;9799;48.214;16.388;2023-02-22T15:52:57;7.20;;;5.03;;
19329;SDS011;9799;48.214;16.388;2023-02-22T15:56:22;5.47;;;4.40;;
19329;SDS011;9799;48.214;16.388;2023-02-22T15:59:50;5.83;;;3.60;;
19329;SDS011;9799;48.214;16.388;2023-02-22T16:03:15;6.00;;;4.00;;
19329;SDS011;9799;48.214;16.388;2023-02-22T16:06:41;5.63;;;4.53;;
19329;SDS011;9799;48.214;16.388;2023-02-22T16:10:02;6.10;;;4.87;;
19329;SDS011;9799;48.214;16.388;2023-02-22T16:13:27;7.60;;;3.70;;
19329;SDS011;9799;48.214;16.388;2023-02-22T16:20:33;6.60;;;4.57;;
19329;SDS011;9799;48.214;16.388;2023-02-22T16:23:55;7.93;;;5.53;;
19329;SDS011;9799;48.214;16.388;2023-02-22T16:27:16;10.10;;;6.80;;
19329;SDS011;9799;48.214;16.388;2023-02-22T16:30:39;6.77;;;5.83;;
19329;SDS011;9799;48.214;16.388;2023-02-22T16:34:03;6.23;;;4.93;;
19329;SDS011;9799;48.214;16.388;2023-02-22T16:37:26;5.83;;;5.03;;
19329;SDS011;9799;48.214;16.388;2023-02-22T16:40:48;6.70;;;5.47;;
19329;SDS011;9799;48.214;16.388;2023-02-22T16:44:13;6.40;;;5.07;;
19329;SDS011;9799;48.214;16.388;2023-02-22T16:47:35;8.30;;;5.77;;
19329;SDS011;9799;48.214;16.388;2023-02-22T16:51:00;6.20;;;5.03;;
19329;SDS011;9799;48.214;16.388;2023-02-22T16:54:27;7.00;;;5.40;;
19329;SDS011;9799;48.214;16.388;2023-02-22T16:57:54;7.87;;;5.83;;
19329;SDS011;9799;48.214;16.388;2023-02-22T17:01:20;10.63;;;6.03;;
19329;SDS011;9799;48.214;16.388;2023-02-22T17:04:42;7.70;;;5.83;;
19329;SDS011;9799;48.214;16.388;2023-02-22T17:08:09;9.87;;;6.90;;
19329;SDS011;9799;48.214;16.388;2023-02-22T17:11:30;8.83;;;5.83;;
19329;SDS011;9799;48.214;16.388;2023-02-22T17:14:53;8.87;;;6.20;;
19329;SDS011;9799;48.214;16.388;2023-02-22T17:18:16;7.60;;;6.10;;
19329;SDS011;9799;48.214;16.388;2023-02-22T17:21:41;8.00;;;6.53;;
19329;SDS011;9799;48.214;16.388;2023-02-22T17:25:10;8.03;;;6.53;;
19329;SDS011;9799;48.214;16.388;2023-02-22T17:28:44;8.63;;;6.80;;
19329;SDS011;9799;48.214;16.388;2023-02-22T17:32:06;7.97;;;6.50;;
19329;SDS011;9799;48.214;16.388;2023-02-22T17:35:27;7.10;;;6.37;;
19329;SDS011;9799;48.214;16.388;2023-02-22T17:38:51;9.10;;;6.57;;
19329;SDS011;9799;48.214;16.388;2023-02-22T17:42:14;7.80;;;6.10;;
19329;SDS011;9799;48.214;16.388;2023-02-22T17:45:37;7.97;;;6.27;;
19329;SDS011;9799;48.214;16.388;2023-02-22T17:48:59;11.70;;;6.90;;
19329;SDS011;9799;48.214;16.388;2023-02-22T17:52:21;8.63;;;7.30;;
19329;SDS011;9799;48.214;16.388;2023-02-22T17:55:43;11.17;;;7.53;;
19329;SDS011;9799;48.214;16.388;2023-02-22T17:59:07;11.40;;;7.00;;
19329;SDS011;9799;48.214;16.388;2023-02-22T18:02:29;7.87;;;7.07;;
19329;SDS011;9799;48.214;16.388;2023-02-22T18:05:53;8.17;;;6.97;;
19329;SDS011;9799;48.214;16.388;2023-02-22T18:09:17;9.70;;;8.10;;
19329;SDS011;9799;48.214;16.388;2023-02-22T18:12:39;9.57;;;7.47;;
19329;SDS011;9799;48.214;16.388;2023-02-22T18:16:03;12.90;;;7.53;;
19329;SDS011;9799;48.214;16.388;2023-02-22T18:19:26;9.17;;;8.27;;
19329;SDS011;9799;48.214;16.388;2023-02-22T18:22:48;9.63;;;7.97;;
19329;SDS011;9799;48.214;16.388;2023-02-22T18:26:13;10.17;;;8.37;;
19329;SDS011;9799;48.214;16.388;2023-02-22T18:29:37;8.50;;;7.60;;
19329;SDS011;9799;48.214;16.388;2023-02-22T18:33:02;9.33;;;7.33;;
19329;SDS011;9799;48.214;16.388;2023-02-22T18:36:29;10.60;;;8.20;;
19329;SDS011;9799;48.214;16.388;2023-02-22T18:39:55;10.67;;;8.30;;
19329;SDS011;9799;48.214;16.388;2023-02-22T18:43:17;9.17;;;8.23;;
19329;SDS011;9799;48.214;16.388;2023-02-22T18:46:40;10.33;;;9.27;;
19329;SDS011;9799;48.214;16.388;2023-02-22T18:50:05;13.03;;;10.10;;
19329;SDS011;9799;48.214;16.388;2023-02-22T18:53:28;13.67;;;11.07;;
19329;SDS011;9799;48.214;16.388;2023-02-22T18:56:50;12.43;;;10.40;;
19329;SDS011;9799;48.214;16.388;2023-02-22T19:00:15;15.80;;;11.37;;
19329;SDS011;9799;48.214;16.388;2023-02-22T19:03:37;15.43;;;12.47;;
19329;SDS011;9799;48.214;16.388;2023-02-22T19:07:00;13.60;;;11.07;;
19329;SDS011;9799;48.214;16.388;2023-02-22T19:10:23;15.50;;;10.87;;
19329;SDS011;9799;48.214;16.388;2023-02-22T19:13:46;14.90;;;11.67;;
19329;SDS011;9799;48.214;16.388;2023-02-22T19:17:09;13.77;;;11.40;;
19329;SDS011;9799;48.214;16.388;2023-02-22T19:20:35;14.47;;;11.70;;
19329;SDS011;9799;48.214;16.388;2023-02-22T19:23:59;13.70;;;11.77;;
19329;SDS011;9799;48.214;16.388;2023-02-22T19:27:21;15.13;;;11.57;;
19329;SDS011;9799;48.214;16.388;2023-02-22T19:30:46;13.63;;;11.93;;
19329;SDS011;9799;48.214;16.388;2023-02-22T19:34:09;15.97;;;13.50;;
19329;SDS011;9799;48.214;16.388;2023-02-22T19:37:35;16.90;;;11.77;;
19329;SDS011;9799;48.214;16.388;2023-02-22T19:40:59;18.53;;;12.83;;
19329;SDS011;9799;48.214;16.388;2023-02-22T19:44:28;18.53;;;12.73;;
19329;SDS011;9799;48.214;16.388;2023-02-22T19:47:52;16.37;;;13.17;;
19329;SDS011;9799;48.214;16.388;2023-02-22T19:51:18;14.33;;;12.63;;
19329;SDS011;9799;48.214;16.388;2023-02-22T19:54:46;16.90;;;12.60;;
19329;SDS011;9799;48.214;16.388;2023-02-22T19:58:11;16.17;;;12.07;;
19329;SDS011;9799;48.214;16.388;2023-02-22T20:01:34;14.57;;;12.33;;
19329;SDS011;9799;48.214;16.388;2023-02-22T20:04:56;14.33;;;12.23;;
19329;SDS011;9799;48.214;16.388;2023-02-22T20:08:19;16.43;;;12.47;;
19329;SDS011;9799;48.214;16.388;2023-02-22T20:11:45;14.27;;;11.77;;
19329;SDS011;9799;48.214;16.388;2023-02-22T20:15:09;17.27;;;13.80;;
19329;SDS011;9799;48.214;16.388;2023-02-22T20:18:32;17.80;;;13.67;;
19329;SDS011;9799;48.214;16.388;2023-02-22T20:21:55;17.80;;;13.57;;
19329;SDS011;9799;48.214;16.388;2023-02-22T20:25:18;23.73;;;14.13;;
19329;SDS011;9799;48.214;16.388;2023-02-22T20:28:41;20.20;;;13.50;;
19329;SDS011;9799;48.214;16.388;2023-02-22T20:32:08;15.97;;;13.73;;
19329;SDS011;9799;48.214;16.388;2023-02-22T20:35:34;17.27;;;13.93;;
19329;SDS011;9799;48.214;16.388;2023-02-22T20:38:57;16.77;;;13.67;;
19329;SDS011;9799;48.214;16.388;2023-02-22T20:42:21;16.83;;;13.57;;
19329;SDS011;9799;48.214;16.388;2023-02-22T20:45:43;20.13;;;14.40;;
19329;SDS011;9799;48.214;16.388;2023-02-22T20:49:07;16.60;;;13.80;;
19329;SDS011;9799;48.214;16.388;2023-02-22T20:52:32;18.00;;;13.97;;
19329;SDS011;9799;48.214;16.388;2023-02-22T20:56:00;15.73;;;13.70;;
19329;SDS011;9799;48.214;16.388;2023-02-22T20:59:22;15.53;;;13.40;;